Time;durP1;ratioP1;P1;durP2;ratioP2;P2;SDS_P1;SDS_P2;PMS_P1;PMS_P2;Temp;Humidity;BMP_temperature;BMP_pressure;BME280_temperature;BME280_humidity;BME280_pressure;Samples;Min_cycle;Max_cycle;Signal;HPM_P1;HPM_P2
2022/12/14 00:00:52;;;;;;;;;;;-0.30;99.90;;;;;;5104445;28;20057;-63
2022/12/14 00:03:17;;;;;;;;;;;-0.20;99.90;;;;;;5106579;28;20011;-63
2022/12/14 00:05:43;;;;;;;;;;;-0.30;99.90;;;;;;5104351;28;19923;-63
2022/12/14 00:08:09;;;;;;;;;;;-0.30;99.90;;;;;;5104617;28;19916;-63
2022/12/14 00:10:36;;;;;;;;;;;-0.20;99.90;;;;;;5105120;28;20015;-63
2022/12/14 00:13:01;;;;;;;;;;;-0.20;99.90;;;;;;5103410;28;19916;-63
2022/12/14 00:15:27;;;;;;;;;;;-0.10;99.90;;;;;;5107354;28;19999;-63
2022/12/14 00:17:53;;;;;;;;;;;-0.40;99.90;;;;;;5101309;28;19916;-63
2022/12/14 00:20:19;;;;;;;;;;;-0.20;99.90;;;;;;5102775;28;19912;-63
2022/12/14 00:22:44;;;;;;;;;;;-0.20;99.90;;;;;;5107056;28;20014;-63
2022/12/14 00:25:09;;;;;;;;;;;-0.20;99.90;;;;;;5084545;28;20407;-63
2022/12/14 00:27:35;;;;;;;;;;;-0.20;99.90;;;;;;5086363;28;19924;-63
2022/12/14 00:30:01;;;;;;;;;;;-0.30;99.90;;;;;;5106579;28;19915;-63
2022/12/14 00:32:26;;;;;;;;;;;-0.40;99.90;;;;;;5103823;28;20008;-63
2022/12/14 00:34:52;;;;;;;;;;;-0.30;99.90;;;;;;5102579;28;19916;-63
2022/12/14 00:37:17;;;;;;;;;;;-0.40;99.90;;;;;;5102990;28;19920;-63
2022/12/14 00:39:42;;;;;;;;;;;-0.30;99.90;;;;;;5105431;28;19955;-63
2022/12/14 00:42:08;;;;;;;;;;;-0.20;99.90;;;;;;5103558;28;19916;-63
2022/12/14 00:44:33;;;;;;;;;;;-0.30;99.90;;;;;;5104649;28;19912;-63
2022/12/14 00:46:59;;;;;;;;;;;-0.60;99.90;;;;;;5105029;28;20010;-63
2022/12/14 00:49:24;;;;;;;;;;;-0.30;99.90;;;;;;5106148;28;19923;-63
2022/12/14 00:51:50;;;;;;;;;;;-0.20;99.90;;;;;;5106795;28;19981;-63
2022/12/14 00:54:15;;;;;;;;;;;-0.10;99.90;;;;;;5102458;28;19915;-63
2022/12/14 00:56:41;;;;;;;;;;;-0.30;99.90;;;;;;5101853;28;20447;-63
2022/12/14 00:59:06;;;;;;;;;;;-0.10;99.90;;;;;;5106455;28;19993;-62
2022/12/14 01:01:32;;;;;;;;;;;-0.20;99.90;;;;;;5106399;28;19919;-63
2022/12/14 01:06:42;;;;;;;;;;;-0.30;99.90;;;;;;5102158;28;20003;-63
2022/12/14 01:09:07;;;;;;;;;;;-0.20;99.90;;;;;;5103996;28;19920;-63
2022/12/14 01:11:33;;;;;;;;;;;-0.20;99.90;;;;;;5104917;28;19919;-63
2022/12/14 01:13:58;;;;;;;;;;;-0.30;99.90;;;;;;5105988;28;20063;-63
2022/12/14 01:16:24;;;;;;;;;;;-0.40;99.90;;;;;;5105468;28;19935;-63
2022/12/14 01:18:49;;;;;;;;;;;-0.50;99.90;;;;;;5105048;28;20006;-63
2022/12/14 01:21:16;;;;;;;;;;;-0.60;99.90;;;;;;5105365;28;19955;-62
2022/12/14 01:23:42;;;;;;;;;;;-0.60;99.90;;;;;;5102940;28;20350;-62
2022/12/14 01:26:08;;;;;;;;;;;-0.70;99.90;;;;;;5105399;28;19928;-62
2022/12/14 01:28:34;;;;;;;;;;;-0.70;99.90;;;;;;5106669;28;19995;-62
2022/12/14 01:31:10;;;;;;;;;;;-0.60;99.90;;;;;;5104183;28;19923;-62
2022/12/14 01:33:36;;;;;;;;;;;-0.60;99.90;;;;;;5105862;28;19919;-62
2022/12/14 01:36:03;;;;;;;;;;;-0.40;99.90;;;;;;5104697;28;19916;-62
2022/12/14 01:38:28;;;;;;;;;;;-0.40;99.90;;;;;;5105758;28;20594;-62
2022/12/14 01:40:57;;;;;;;;;;;-0.50;99.90;;;;;;5104640;28;20220;-62
2022/12/14 01:43:22;;;;;;;;;;;-0.70;99.90;;;;;;5104552;28;19931;-62
2022/12/14 01:45:48;;;;;;;;;;;-0.70;99.90;;;;;;5102980;28;19920;-63
2022/12/14 01:48:13;;;;;;;;;;;-0.70;99.90;;;;;;5104210;28;19915;-62
2022/12/14 01:50:41;;;;;;;;;;;-0.70;99.90;;;;;;5105297;28;19938;-62
2022/12/14 01:53:09;;;;;;;;;;;-0.70;99.90;;;;;;5103254;28;19972;-62
2022/12/14 01:55:40;;;;;;;;;;;-0.70;99.90;;;;;;5105939;28;19919;-62
2022/12/14 01:58:08;;;;;;;;;;;-0.50;99.90;;;;;;5105006;28;19957;-62
2022/12/14 02:00:34;;;;;;;;;;;-0.70;99.90;;;;;;5103234;28;19923;-62
2022/12/14 02:03:03;;;;;;;;;;;-0.80;99.90;;;;;;5102638;28;19920;-62
2022/12/14 02:05:29;;;;;;;;;;;-0.70;99.90;;;;;;5100666;27;20367;-62
2022/12/14 02:07:55;;;;;;;;;;;-0.70;99.90;;;;;;5104955;28;20301;-62
2022/12/14 02:10:22;;;;;;;;;;;-0.90;99.90;;;;;;5098532;28;19970;-62
2022/12/14 02:12:49;;;;;;;;;;;-0.90;99.90;;;;;;5099154;28;20448;-62
2022/12/14 02:15:15;;;;;;;;;;;-1.00;99.90;;;;;;5097539;28;20019;-62
2022/12/14 02:17:45;;;;;;;;;;;-0.80;99.90;;;;;;5104401;28;20006;-61
2022/12/14 02:20:11;;;;;;;;;;;-1.10;99.90;;;;;;5103302;28;19930;-61
2022/12/14 02:22:58;;;;;;;;;;;-1.00;99.90;;;;;;5099978;28;19924;-61
2022/12/14 02:25:42;;;;;;;;;;;-0.90;99.90;;;;;;5078787;28;19994;-62
2022/12/14 02:28:20;;;;;;;;;;;-0.70;99.90;;;;;;5102565;28;19926;-62
2022/12/14 02:30:57;;;;;;;;;;;-0.80;99.90;;;;;;5103696;28;20282;-61
2022/12/14 02:33:30;;;;;;;;;;;-1.10;99.90;;;;;;5100876;28;20472;-62
2022/12/14 02:36:01;;;;;;;;;;;-1.00;99.90;;;;;;5103787;28;20004;-62
2022/12/14 02:38:45;;;;;;;;;;;-1.00;99.90;;;;;;5102918;28;20049;-62
2022/12/14 02:41:21;;;;;;;;;;;-1.10;99.90;;;;;;5084691;28;20270;-62
2022/12/14 02:43:55;;;;;;;;;;;-1.10;99.90;;;;;;5083123;28;20435;-62
2022/12/14 02:46:21;;;;;;;;;;;-1.10;99.90;;;;;;5095428;28;21519;-62
2022/12/14 02:48:49;;;;;;;;;;;-1.00;99.90;;;;;;5104913;28;19916;-62
2022/12/14 02:51:29;;;;;;;;;;;-1.10;99.90;;;;;;5102774;28;19915;-61
2022/12/14 02:54:10;;;;;;;;;;;-1.20;99.90;;;;;;5098527;28;19920;-62
2022/12/14 02:56:39;;;;;;;;;;;-1.20;99.90;;;;;;5102027;28;20050;-63
2022/12/14 02:59:07;;;;;;;;;;;-1.20;99.90;;;;;;5100890;28;19920;-63
2022/12/14 03:01:33;;;;;;;;;;;-1.20;99.90;;;;;;5100755;28;19920;-63
2022/12/14 03:03:59;;;;;;;;;;;-1.10;99.90;;;;;;5101527;28;20022;-62
2022/12/14 03:06:25;;;;;;;;;;;-1.10;99.90;;;;;;5101337;28;20023;-62
2022/12/14 03:08:52;;;;;;;;;;;-1.20;99.90;;;;;;5103708;28;19912;-63
2022/12/14 03:11:20;;;;;;;;;;;-1.20;99.90;;;;;;5101934;28;20007;-62
2022/12/14 03:13:57;;;;;;;;;;;-1.30;99.90;;;;;;5101775;28;20391;-62
2022/12/14 03:16:30;;;;;;;;;;;-1.40;99.90;;;;;;5099845;28;19955;-62
2022/12/14 03:19:01;;;;;;;;;;;-1.50;99.90;;;;;;5105021;28;20367;-62
2022/12/14 03:21:30;;;;;;;;;;;-1.40;99.90;;;;;;5102103;28;19923;-62
2022/12/14 03:23:56;;;;;;;;;;;-1.40;99.90;;;;;;5104372;28;19912;-62
2022/12/14 03:26:31;;;;;;;;;;;-1.20;99.90;;;;;;5102533;28;20434;-62
2022/12/14 03:28:57;;;;;;;;;;;-1.20;99.90;;;;;;5102252;28;20394;-62
2022/12/14 03:31:27;;;;;;;;;;;-1.40;99.90;;;;;;5102118;28;19972;-63
2022/12/14 03:33:53;;;;;;;;;;;-1.20;99.90;;;;;;5103858;28;19927;-63
2022/12/14 03:36:24;;;;;;;;;;;-1.20;99.90;;;;;;5103080;28;19938;-62
2022/12/14 03:38:51;;;;;;;;;;;-1.10;99.90;;;;;;5103999;28;20242;-62
2022/12/14 03:41:24;;;;;;;;;;;-1.20;99.90;;;;;;5101741;28;19919;-61
2022/12/14 03:44:01;;;;;;;;;;;-1.10;99.90;;;;;;5103639;28;19927;-62
2022/12/14 03:46:32;;;;;;;;;;;-1.10;99.90;;;;;;5095552;28;19916;-62
2022/12/14 03:49:09;;;;;;;;;;;-1.10;99.90;;;;;;5101956;28;20371;-61
2022/12/14 03:51:40;;;;;;;;;;;-1.10;99.90;;;;;;5100574;28;20003;-62
2022/12/14 03:54:18;;;;;;;;;;;-1.10;99.90;;;;;;5098484;28;20375;-62
2022/12/14 03:56:55;;;;;;;;;;;-1.20;99.90;;;;;;5103541;28;19922;-61
2022/12/14 03:59:26;;;;;;;;;;;-1.20;99.90;;;;;;5103097;28;21342;-62
2022/12/14 04:01:57;;;;;;;;;;;-1.40;99.90;;;;;;5097319;28;20316;-62
2022/12/14 04:04:32;;;;;;;;;;;-1.40;99.90;;;;;;5097461;28;20038;-62
2022/12/14 04:07:07;;;;;;;;;;;-1.30;99.90;;;;;;5103332;28;19916;-62
2022/12/14 04:09:45;;;;;;;;;;;-1.30;99.90;;;;;;5103995;28;19954;-62
2022/12/14 04:20:56;;;;;;;;;;;-1.30;99.90;;;;;;5102669;28;20548;-62
2022/12/14 04:26:11;;;;;;;;;;;-1.30;99.90;;;;;;5104444;28;19966;-62
2022/12/14 04:31:27;;;;;;;;;;;-1.20;99.90;;;;;;5106667;28;19931;-63
2022/12/14 04:33:54;;;;;;;;;;;-1.30;99.90;;;;;;5103973;28;20371;-63
2022/12/14 04:36:27;;;;;;;;;;;-1.20;99.90;;;;;;5104877;28;19912;-62
2022/12/14 04:38:55;;;;;;;;;;;-1.20;99.90;;;;;;5107323;28;19912;-63
2022/12/14 04:41:23;;;;;;;;;;;-1.60;99.90;;;;;;5105374;28;20617;-62
2022/12/14 04:43:49;;;;;;;;;;;-1.80;99.90;;;;;;5105670;28;19923;-62
2022/12/14 04:46:18;;;;;;;;;;;-1.80;99.90;;;;;;5104983;28;19946;-63
2022/12/14 04:48:54;;;;;;;;;;;-1.40;99.90;;;;;;5106469;28;19919;-63
2022/12/14 04:51:41;;;;;;;;;;;-1.30;99.90;;;;;;5105586;28;19920;-63
2022/12/14 04:54:28;;;;;;;;;;;-1.20;99.90;;;;;;5100163;28;19966;-63
2022/12/14 04:57:01;;;;;;;;;;;-1.10;99.90;;;;;;5104266;28;20057;-63
2022/12/14 04:59:27;;;;;;;;;;;-1.30;99.90;;;;;;5104797;28;19942;-63
2022/12/14 05:02:09;;;;;;;;;;;-1.10;99.90;;;;;;5102858;28;19915;-63
2022/12/14 05:04:53;;;;;;;;;;;-1.10;99.90;;;;;;5106241;28;20006;-63
2022/12/14 05:07:46;;;;;;;;;;;-1.20;99.90;;;;;;5105943;28;20045;-63
2022/12/14 05:10:14;;;;;;;;;;;-1.60;99.90;;;;;;5093701;28;20322;-63
2022/12/14 05:12:40;;;;;;;;;;;-1.40;99.90;;;;;;5104627;28;19911;-62
2022/12/14 05:15:08;;;;;;;;;;;-1.30;99.90;;;;;;5106024;28;19916;-63
2022/12/14 05:17:34;;;;;;;;;;;-1.10;99.90;;;;;;5105423;28;19926;-62
2022/12/14 05:20:00;;;;;;;;;;;-1.10;99.90;;;;;;5103275;28;19916;-62
2022/12/14 05:22:25;;;;;;;;;;;-1.10;99.90;;;;;;5105069;28;19947;-63
2022/12/14 05:24:50;;;;;;;;;;;-0.90;99.90;;;;;;5084536;28;20010;-63
2022/12/14 05:27:16;;;;;;;;;;;-0.90;99.90;;;;;;5104902;28;20125;-62
2022/12/14 05:29:41;;;;;;;;;;;-0.90;99.90;;;;;;5106055;28;20506;-63
2022/12/14 05:32:11;;;;;;;;;;;-0.70;99.90;;;;;;5102243;28;22401;-62
2022/12/14 05:34:37;;;;;;;;;;;-0.90;99.90;;;;;;5106120;28;19916;-63
2022/12/14 05:37:02;;;;;;;;;;;-0.90;99.90;;;;;;5102093;28;19916;-62
2022/12/14 05:39:28;;;;;;;;;;;-0.80;99.90;;;;;;5105297;28;19912;-63
2022/12/14 05:41:53;;;;;;;;;;;-0.80;99.90;;;;;;5102510;28;19916;-63
2022/12/14 05:44:19;;;;;;;;;;;-1.00;99.90;;;;;;5104158;28;20015;-63
2022/12/14 05:46:45;;;;;;;;;;;-1.10;99.90;;;;;;5101006;28;20427;-63
2022/12/14 05:49:10;;;;;;;;;;;-1.30;99.90;;;;;;5087136;28;20334;-63
2022/12/14 05:51:36;;;;;;;;;;;-1.30;99.90;;;;;;5105737;28;19928;-62
2022/12/14 05:54:01;;;;;;;;;;;-1.40;99.90;;;;;;5104607;28;19934;-62
2022/12/14 05:56:27;;;;;;;;;;;-1.10;99.90;;;;;;5104382;28;19916;-63
2022/12/14 05:58:53;;;;;;;;;;;-1.10;99.90;;;;;;5105832;28;19916;-62
2022/12/14 06:01:18;;;;;;;;;;;-1.00;99.90;;;;;;5102533;28;20743;-63
2022/12/14 06:03:44;;;;;;;;;;;-1.00;99.90;;;;;;5106356;28;19912;-63
2022/12/14 06:06:11;;;;;;;;;;;-0.90;99.90;;;;;;5103157;28;19912;-63
2022/12/14 06:08:37;;;;;;;;;;;-0.80;99.90;;;;;;5104769;28;19926;-62
2022/12/14 06:11:04;;;;;;;;;;;-0.80;99.90;;;;;;5103685;28;20539;-63
2022/12/14 06:13:30;;;;;;;;;;;-0.80;99.90;;;;;;5102708;28;19912;-62
2022/12/14 06:16:05;;;;;;;;;;;-0.80;99.90;;;;;;5103793;28;19923;-63
2022/12/14 06:18:31;;;;;;;;;;;-0.80;99.90;;;;;;5100917;28;20294;-63
2022/12/14 06:20:57;;;;;;;;;;;-0.70;99.90;;;;;;5101635;28;19919;-63
2022/12/14 06:23:23;;;;;;;;;;;-0.70;99.90;;;;;;5086137;28;19927;-63
2022/12/14 06:25:52;;;;;;;;;;;-0.70;99.90;;;;;;5102723;28;19916;-62
2022/12/14 06:28:17;;;;;;;;;;;-0.80;99.90;;;;;;5101851;28;19912;-62
2022/12/14 06:30:45;;;;;;;;;;;-0.80;99.90;;;;;;5101253;28;20298;-63
2022/12/14 06:33:11;;;;;;;;;;;-0.80;99.90;;;;;;5102428;28;20007;-62
2022/12/14 06:35:36;;;;;;;;;;;-0.80;99.90;;;;;;5102632;28;20688;-63
2022/12/14 06:38:02;;;;;;;;;;;-0.80;99.90;;;;;;5103749;28;19919;-63
2022/12/14 06:40:27;;;;;;;;;;;-0.80;99.90;;;;;;5102112;28;19972;-63
2022/12/14 06:42:52;;;;;;;;;;;-0.80;99.90;;;;;;5101354;28;19912;-63
2022/12/14 06:45:18;;;;;;;;;;;-0.80;99.90;;;;;;5097733;28;20385;-62
2022/12/14 06:47:43;;;;;;;;;;;-0.80;99.90;;;;;;5084358;28;19934;-62
2022/12/14 06:50:09;;;;;;;;;;;-0.80;99.90;;;;;;5100769;28;19919;-62
2022/12/14 06:52:36;;;;;;;;;;;-0.70;99.90;;;;;;5100122;28;20010;-58
2022/12/14 06:55:02;;;;;;;;;;;-0.70;99.90;;;;;;5100100;28;20030;-63
2022/12/14 06:57:27;;;;;;;;;;;-0.80;99.90;;;;;;5103035;28;20010;-63
2022/12/14 06:59:53;;;;;;;;;;;-0.80;99.90;;;;;;5099814;28;19931;-62
2022/12/14 07:02:18;;;;;;;;;;;-0.80;99.90;;;;;;5099673;28;19920;-62
2022/12/14 07:04:44;;;;;;;;;;;-0.90;99.90;;;;;;5103069;28;20316;-62
2022/12/14 07:07:09;;;;;;;;;;;-0.80;99.90;;;;;;5103237;28;19920;-63
2022/12/14 07:09:35;;;;;;;;;;;-0.80;99.90;;;;;;5099461;28;20009;-63
2022/12/14 07:12:00;;;;;;;;;;;-0.80;99.90;;;;;;5099947;28;19959;-62
2022/12/14 07:14:26;;;;;;;;;;;-0.80;99.90;;;;;;5102156;28;19920;-63
2022/12/14 07:16:51;;;;;;;;;;;-0.80;99.90;;;;;;5102138;28;19923;-63
2022/12/14 07:19:17;;;;;;;;;;;-0.80;99.90;;;;;;5099591;28;20328;-62
2022/12/14 07:21:42;;;;;;;;;;;-0.80;99.90;;;;;;5101358;28;19998;-62
2022/12/14 07:24:08;;;;;;;;;;;-0.80;99.90;;;;;;5101258;28;20387;-62
2022/12/14 07:26:35;;;;;;;;;;;-0.70;99.90;;;;;;5101900;28;19920;-61
2022/12/14 07:29:00;;;;;;;;;;;-0.80;99.90;;;;;;5103150;28;20000;-62
2022/12/14 07:31:27;;;;;;;;;;;-0.80;99.90;;;;;;5100007;28;19962;-62
2022/12/14 07:33:53;;;;;;;;;;;-0.70;99.90;;;;;;5082501;28;20000;-62
2022/12/14 07:36:19;;;;;;;;;;;-0.80;99.90;;;;;;5102699;28;20409;-63
2022/12/14 07:38:46;;;;;;;;;;;-0.80;99.90;;;;;;5102937;28;19911;-62
2022/12/14 07:41:11;;;;;;;;;;;-0.70;99.90;;;;;;5101240;28;19915;-62
2022/12/14 07:43:38;;;;;;;;;;;-0.80;99.90;;;;;;5084638;28;20286;-62
2022/12/14 07:46:04;;;;;;;;;;;-0.80;99.90;;;;;;5100889;28;19916;-62
2022/12/14 07:48:30;;;;;;;;;;;-0.80;99.90;;;;;;5107832;28;20495;-62
2022/12/14 07:51:07;;;;;;;;;;;-0.80;99.90;;;;;;5107580;28;19919;-62
2022/12/14 07:53:33;;;;;;;;;;;-0.80;99.90;;;;;;5102286;28;20313;-62
2022/12/14 07:55:59;;;;;;;;;;;-0.80;99.90;;;;;;5104430;28;19923;-63
2022/12/14 07:58:24;;;;;;;;;;;-0.60;99.90;;;;;;5107358;28;19940;-61
2022/12/14 08:00:50;;;;;;;;;;;-0.70;99.90;;;;;;5106097;28;20380;-62
2022/12/14 08:03:15;;;;;;;;;;;-0.60;99.90;;;;;;5105956;28;19916;-62
2022/12/14 08:05:41;;;;;;;;;;;-0.50;99.90;;;;;;5107147;28;19919;-62
2022/12/14 08:08:06;;;;;;;;;;;-0.60;99.90;;;;;;5107583;28;19916;-62
2022/12/14 08:10:32;;;;;;;;;;;-0.60;99.90;;;;;;5101652;28;20299;-62
2022/12/14 08:12:57;;;;;;;;;;;-0.60;99.90;;;;;;5104197;28;20028;-62
2022/12/14 08:15:23;;;;;;;;;;;-0.50;99.90;;;;;;5106841;28;19927;-62
2022/12/14 08:17:48;;;;;;;;;;;-0.70;99.90;;;;;;5102659;28;19927;-62
2022/12/14 08:20:14;;;;;;;;;;;-0.70;99.90;;;;;;5086018;28;20317;-62
2022/12/14 08:22:39;;;;;;;;;;;-0.60;99.90;;;;;;5107876;28;19919;-63
2022/12/14 08:25:05;;;;;;;;;;;-0.60;99.90;;;;;;5103227;28;20387;-62
2022/12/14 08:27:30;;;;;;;;;;;-0.60;99.90;;;;;;5085503;28;19920;-62
2022/12/14 08:29:56;;;;;;;;;;;-0.80;99.90;;;;;;5088813;28;20005;-62
2022/12/14 08:32:21;;;;;;;;;;;-0.70;99.90;;;;;;5103784;28;19931;-62
2022/12/14 08:34:47;;;;;;;;;;;-0.60;99.90;;;;;;5084813;28;20371;-62
2022/12/14 08:37:12;;;;;;;;;;;-0.50;99.90;;;;;;5103102;28;19912;-62
2022/12/14 08:39:38;;;;;;;;;;;-0.50;99.90;;;;;;5102098;28;19990;-63
2022/12/14 08:42:03;;;;;;;;;;;-0.40;99.90;;;;;;5103228;28;19976;-62
2022/12/14 08:44:28;;;;;;;;;;;-0.40;99.90;;;;;;5106582;27;20302;-62
2022/12/14 08:46:54;;;;;;;;;;;-0.40;99.90;;;;;;5106123;28;19962;-62
2022/12/14 08:49:20;;;;;;;;;;;-0.40;99.90;;;;;;5103799;28;20455;-62
2022/12/14 08:51:45;;;;;;;;;;;-0.40;99.90;;;;;;5102559;28;19920;-62
2022/12/14 08:54:11;;;;;;;;;;;-0.40;99.90;;;;;;5098754;28;19920;-62
2022/12/14 08:56:37;;;;;;;;;;;-0.40;99.90;;;;;;5084541;28;20439;-62
2022/12/14 08:59:02;;;;;;;;;;;-0.20;99.90;;;;;;5102874;28;20282;-62
2022/12/14 09:01:28;;;;;;;;;;;-0.30;99.90;;;;;;5102505;28;19924;-62
2022/12/14 09:03:54;;;;;;;;;;;-0.30;99.90;;;;;;5102413;28;19926;-62
2022/12/14 09:06:22;;;;;;;;;;;-0.20;99.90;;;;;;5104298;28;19920;-63
2022/12/14 09:08:48;;;;;;;;;;;-0.20;99.90;;;;;;5102607;28;19972;-63
2022/12/14 09:11:14;;;;;;;;;;;-0.20;99.90;;;;;;5102858;28;19919;-62
2022/12/14 09:13:40;;;;;;;;;;;-0.20;99.90;;;;;;5104155;28;20226;-63
2022/12/14 09:16:07;;;;;;;;;;;-0.10;99.90;;;;;;5104348;28;19916;-62
2022/12/14 09:18:33;;;;;;;;;;;-0.10;99.90;;;;;;5102751;28;19926;-63
2022/12/14 09:20:59;;;;;;;;;;;-0.10;99.90;;;;;;5103619;28;19916;-62
2022/12/14 09:23:26;;;;;;;;;;;-0.20;99.90;;;;;;5103785;28;19968;-62
2022/12/14 09:26:02;;;;;;;;;;;-0.10;99.90;;;;;;5102737;28;19916;-62
2022/12/14 09:28:28;;;;;;;;;;;-0.10;99.90;;;;;;5101341;28;20394;-62
2022/12/14 09:30:57;;;;;;;;;;;-0.10;99.90;;;;;;5084699;28;19920;-62
2022/12/14 09:33:24;;;;;;;;;;;-0.10;99.90;;;;;;5103034;28;20390;-62
2022/12/14 09:35:49;;;;;;;;;;;0.00;99.90;;;;;;5104872;28;19924;-62
2022/12/14 09:38:15;;;;;;;;;;;0.10;99.90;;;;;;5105774;28;20336;-62
2022/12/14 09:40:44;;;;;;;;;;;0.10;99.90;;;;;;5097646;28;19911;-63
2022/12/14 09:43:14;;;;;;;;;;;0.10;99.90;;;;;;5096947;28;19923;-63
2022/12/14 09:45:46;;;;;;;;;;;0.10;99.90;;;;;;5099385;28;20345;-63
2022/12/14 09:48:11;;;;;;;;;;;0.00;99.90;;;;;;5097863;28;20003;-63
2022/12/14 09:50:37;;;;;;;;;;;0.00;99.90;;;;;;5105253;28;19994;-63
2022/12/14 09:53:06;;;;;;;;;;;0.00;99.90;;;;;;5082947;28;19922;-62
2022/12/14 09:55:42;;;;;;;;;;;0.10;99.90;;;;;;5103284;28;19912;-62
2022/12/14 09:58:17;;;;;;;;;;;0.10;99.90;;;;;;5105390;28;19919;-63
2022/12/14 10:00:46;;;;;;;;;;;0.10;99.90;;;;;;5094633;28;19923;-63
2022/12/14 10:03:30;;;;;;;;;;;0.00;99.90;;;;;;5104369;28;19942;-62
2022/12/14 10:06:11;;;;;;;;;;;0.00;99.90;;;;;;5100284;28;20371;-63
2022/12/14 10:08:39;;;;;;;;;;;0.00;99.90;;;;;;5086694;28;20264;-62
2022/12/14 10:11:25;;;;;;;;;;;0.10;99.90;;;;;;5102962;28;19931;-63
2022/12/14 10:13:51;;;;;;;;;;;0.20;99.90;;;;;;5072680;28;19976;-62
2022/12/14 10:16:34;;;;;;;;;;;0.20;99.90;;;;;;5100995;28;19920;-63
2022/12/14 10:19:18;;;;;;;;;;;0.10;99.90;;;;;;5102154;28;19927;-62
2022/12/14 10:21:45;;;;;;;;;;;0.10;99.90;;;;;;5104673;28;19912;-63
2022/12/14 10:24:13;;;;;;;;;;;0.00;99.90;;;;;;5104313;28;19999;-62
2022/12/14 10:26:45;;;;;;;;;;;0.00;99.90;;;;;;5103311;28;20136;-62
2022/12/14 10:29:20;;;;;;;;;;;0.10;99.90;;;;;;5102351;28;19926;-63
2022/12/14 10:31:52;;;;;;;;;;;0.20;99.90;;;;;;5105734;28;19919;-63
2022/12/14 10:34:20;;;;;;;;;;;0.40;99.90;;;;;;5103218;28;20375;-63
2022/12/14 10:37:08;;;;;;;;;;;0.40;99.90;;;;;;5103743;28;19927;-62
2022/12/14 10:39:48;;;;;;;;;;;0.60;99.90;;;;;;5101880;28;20359;-63
2022/12/14 10:42:23;;;;;;;;;;;0.70;99.90;;;;;;5101206;28;20332;-62
2022/12/14 10:44:54;;;;;;;;;;;0.70;99.90;;;;;;5102338;28;20253;-63
2022/12/14 10:47:41;;;;;;;;;;;0.70;99.90;;;;;;5100369;28;19920;-63
2022/12/14 10:50:18;;;;;;;;;;;0.80;99.90;;;;;;5102467;28;19923;-63
2022/12/14 10:52:45;;;;;;;;;;;0.90;99.90;;;;;;5101154;28;20166;-63
2022/12/14 10:55:22;;;;;;;;;;;1.00;99.90;;;;;;5100329;28;19976;-63
2022/12/14 10:57:48;;;;;;;;;;;1.20;99.90;;;;;;5102500;28;19915;-63
2022/12/14 11:00:15;;;;;;;;;;;1.20;99.90;;;;;;5101854;28;19988;-63
2022/12/14 11:02:47;;;;;;;;;;;1.20;99.90;;;;;;5100787;28;19916;-63
2022/12/14 11:05:24;;;;;;;;;;;1.20;99.90;;;;;;5100987;28;20382;-64
2022/12/14 11:07:50;;;;;;;;;;;1.40;99.90;;;;;;5103313;28;19919;-63
2022/12/14 11:10:17;;;;;;;;;;;1.30;99.90;;;;;;5103233;28;20381;-63
2022/12/14 11:13:09;;;;;;;;;;;1.20;99.90;;;;;;5099231;28;20355;-63
2022/12/14 11:15:45;;;;;;;;;;;1.00;99.90;;;;;;5099460;28;19931;-63
2022/12/14 11:18:11;;;;;;;;;;;1.20;99.90;;;;;;5108698;28;19919;-62
2022/12/14 11:20:47;;;;;;;;;;;1.20;99.90;;;;;;5090155;28;19916;-62
2022/12/14 11:23:17;;;;;;;;;;;1.00;99.90;;;;;;5104418;28;19916;-63
2022/12/14 11:25:45;;;;;;;;;;;1.00;99.90;;;;;;5106798;28;20541;-62
2022/12/14 11:28:23;;;;;;;;;;;0.90;99.90;;;;;;5108208;28;19965;-62
2022/12/14 11:31:15;;;;;;;;;;;1.10;99.90;;;;;;5104501;28;19928;-63
2022/12/14 11:33:44;;;;;;;;;;;1.30;99.90;;;;;;5100985;28;19991;-62
2022/12/14 11:36:21;;;;;;;;;;;1.40;99.90;;;;;;5104960;28;19923;-62
2022/12/14 11:38:56;;;;;;;;;;;1.40;99.90;;;;;;5108522;27;19916;-62
2022/12/14 11:41:22;;;;;;;;;;;1.10;99.90;;;;;;5105915;27;19969;-62
2022/12/14 11:44:11;;;;;;;;;;;1.00;99.90;;;;;;5108361;27;20352;-62
2022/12/14 11:46:44;;;;;;;;;;;1.00;99.90;;;;;;5096428;27;19951;-62
2022/12/14 11:49:25;;;;;;;;;;;0.90;99.90;;;;;;5108983;27;20378;-63
2022/12/14 11:51:54;;;;;;;;;;;0.90;99.90;;;;;;5109912;27;20398;-63
2022/12/14 11:54:20;;;;;;;;;;;0.90;99.90;;;;;;5108687;28;19919;-62
2022/12/14 11:56:48;;;;;;;;;;;0.80;99.90;;;;;;5106552;28;19941;-64
2022/12/14 11:59:16;;;;;;;;;;;0.90;99.90;;;;;;5105066;27;19916;-63
2022/12/14 12:01:41;;;;;;;;;;;0.70;99.90;;;;;;5108174;27;19922;-63
2022/12/14 12:04:10;;;;;;;;;;;0.60;99.90;;;;;;5105197;27;19919;-62
2022/12/14 12:06:35;;;;;;;;;;;0.60;99.90;;;;;;5100729;28;19917;-63
2022/12/14 12:09:02;;;;;;;;;;;0.70;99.90;;;;;;5103841;27;19973;-63
2022/12/14 12:11:29;;;;;;;;;;;0.80;99.90;;;;;;5106598;27;20371;-62
2022/12/14 12:13:58;;;;;;;;;;;1.00;99.90;;;;;;5086091;28;19966;-63
2022/12/14 12:16:25;;;;;;;;;;;1.20;99.90;;;;;;5091047;27;19928;-63
2022/12/14 12:19:00;;;;;;;;;;;1.20;99.90;;;;;;5099563;27;19912;-63
2022/12/14 12:21:30;;;;;;;;;;;1.10;99.90;;;;;;5105733;28;19977;-63
2022/12/14 12:23:59;;;;;;;;;;;0.90;99.90;;;;;;5107394;28;20003;-63
2022/12/14 12:26:27;;;;;;;;;;;0.80;99.90;;;;;;5103025;28;20527;-62
2022/12/14 12:28:55;;;;;;;;;;;0.70;99.90;;;;;;5107513;28;19912;-63
2022/12/14 12:31:28;;;;;;;;;;;0.70;99.90;;;;;;5104145;28;20311;-62
2022/12/14 12:34:09;;;;;;;;;;;0.80;99.90;;;;;;5106772;28;20287;-63
2022/12/14 12:36:35;;;;;;;;;;;0.60;99.90;;;;;;5106808;28;19927;-62
2022/12/14 12:39:14;;;;;;;;;;;0.90;99.90;;;;;;5088970;28;19969;-63
2022/12/14 12:41:46;;;;;;;;;;;0.90;99.90;;;;;;5101753;28;20427;-63
2022/12/14 12:44:23;;;;;;;;;;;0.60;99.90;;;;;;5106870;28;19919;-62
2022/12/14 12:47:01;;;;;;;;;;;0.90;99.90;;;;;;5106187;28;19929;-63
2022/12/14 12:49:26;;;;;;;;;;;0.90;99.90;;;;;;5103616;28;19979;-63
2022/12/14 12:51:58;;;;;;;;;;;0.80;99.90;;;;;;5104213;28;20332;-62
2022/12/14 12:54:33;;;;;;;;;;;0.70;99.90;;;;;;5104306;28;19912;-62
2022/12/14 12:56:59;;;;;;;;;;;0.80;99.90;;;;;;5105130;28;19916;-62
2022/12/14 12:59:32;;;;;;;;;;;0.90;99.90;;;;;;5075171;28;19923;-62
2022/12/14 13:01:59;;;;;;;;;;;0.80;99.90;;;;;;5106228;28;19916;-62
2022/12/14 13:04:29;;;;;;;;;;;0.90;99.90;;;;;;5103633;28;20386;-62
2022/12/14 13:06:58;;;;;;;;;;;0.70;99.90;;;;;;5099996;27;20390;-63
2022/12/14 13:09:56;;;;;;;;;;;0.80;99.90;;;;;;5104296;28;20056;-63
2022/12/14 13:12:34;;;;;;;;;;;1.00;99.90;;;;;;5090065;28;19924;-63
2022/12/14 13:15:01;;;;;;;;;;;0.90;99.90;;;;;;5102025;27;20355;-63
2022/12/14 13:17:36;;;;;;;;;;;0.80;99.90;;;;;;5105592;27;20508;-62
2022/12/14 13:20:04;;;;;;;;;;;0.70;99.90;;;;;;5104582;28;19915;-63
2022/12/14 13:22:31;;;;;;;;;;;0.80;99.90;;;;;;5108812;27;19924;-63
2022/12/14 13:25:00;;;;;;;;;;;0.90;99.90;;;;;;5103728;27;19923;-63
2022/12/14 13:27:39;;;;;;;;;;;0.90;99.90;;;;;;5106020;28;19952;-63
2022/12/14 13:30:14;;;;;;;;;;;0.90;99.90;;;;;;5105959;27;19915;-62
2022/12/14 13:32:50;;;;;;;;;;;0.80;99.90;;;;;;5102051;28;20422;-61
2022/12/14 13:35:34;;;;;;;;;;;0.60;99.90;;;;;;5101081;28;20428;-61
2022/12/14 13:38:06;;;;;;;;;;;0.70;99.90;;;;;;5106770;28;20404;-61
2022/12/14 13:40:55;;;;;;;;;;;0.80;99.90;;;;;;5099423;28;20011;-61
2022/12/14 13:43:20;;;;;;;;;;;0.90;99.90;;;;;;5100232;28;20399;-61
2022/12/14 13:45:46;;;;;;;;;;;0.90;99.90;;;;;;5104216;28;19927;-62
2022/12/14 13:48:26;;;;;;;;;;;1.10;99.90;;;;;;5104614;28;19976;-61
2022/12/14 13:50:55;;;;;;;;;;;1.00;99.90;;;;;;5104656;28;20398;-62
2022/12/14 13:53:29;;;;;;;;;;;1.10;99.90;;;;;;5101302;28;19924;-62
2022/12/14 13:55:58;;;;;;;;;;;1.00;99.90;;;;;;5103737;28;19941;-62
2022/12/14 13:58:29;;;;;;;;;;;0.90;99.90;;;;;;5105026;28;19915;-61
2022/12/14 14:00:57;;;;;;;;;;;0.70;99.90;;;;;;5103054;28;19919;-61
2022/12/14 14:03:35;;;;;;;;;;;0.60;99.90;;;;;;5104802;28;20394;-61
2022/12/14 14:06:00;;;;;;;;;;;0.60;99.90;;;;;;5104623;28;20283;-62
2022/12/14 14:08:32;;;;;;;;;;;0.60;99.90;;;;;;5104654;28;19928;-61
2022/12/14 14:11:20;;;;;;;;;;;0.70;99.90;;;;;;5104317;28;19916;-61
2022/12/14 14:13:45;;;;;;;;;;;0.70;99.90;;;;;;5102675;28;20347;-62
2022/12/14 14:16:23;;;;;;;;;;;0.70;99.90;;;;;;5101192;28;19920;-62
2022/12/14 14:19:01;;;;;;;;;;;0.60;99.90;;;;;;5105485;28;19911;-61
2022/12/14 14:21:29;;;;;;;;;;;0.40;99.90;;;;;;5103811;28;19939;-62
2022/12/14 14:23:56;;;;;;;;;;;0.30;99.90;;;;;;5103767;28;21008;-62
2022/12/14 14:26:23;;;;;;;;;;;0.40;99.90;;;;;;5103331;28;19966;-62
2022/12/14 14:28:52;;;;;;;;;;;0.40;99.90;;;;;;5102108;28;20358;-61
2022/12/14 14:31:18;;;;;;;;;;;0.30;99.90;;;;;;5102697;28;20586;-62
2022/12/14 14:33:46;;;;;;;;;;;0.40;99.90;;;;;;5102824;28;20011;-62
2022/12/14 14:36:31;;;;;;;;;;;0.40;99.90;;;;;;5085354;28;19912;-62
2022/12/14 14:38:57;;;;;;;;;;;0.50;99.90;;;;;;5103730;28;20290;-62
2022/12/14 14:41:26;;;;;;;;;;;0.50;99.90;;;;;;5102425;28;19919;-61
2022/12/14 14:43:53;;;;;;;;;;;0.40;99.90;;;;;;5101411;28;19961;-62
2022/12/14 14:46:19;;;;;;;;;;;0.60;99.90;;;;;;5098253;28;19923;-62
2022/12/14 14:48:55;;;;;;;;;;;0.40;99.90;;;;;;5103570;28;19970;-61
2022/12/14 14:51:28;;;;;;;;;;;0.20;99.90;;;;;;5101128;28;19920;-62